createdAt,value
2024-05-09T00:01:03.116Z,100241.50
2024-05-09T00:03:42.282Z,100240.08
2024-05-09T00:06:13.430Z,100239.30
2024-05-09T00:09:00.964Z,100237.23
2024-05-09T00:11:33.436Z,100235.96
2024-05-09T00:14:16.244Z,100237.31
2024-05-09T00:17:12.634Z,100231.90
2024-05-09T00:20:17.621Z,100230.79
2024-05-09T00:22:55.030Z,100232.78
2024-05-09T00:25:30.037Z,100230.87
2024-05-09T00:28:31.131Z,100230.86
2024-05-09T00:31:37.516Z,100228.55
2024-05-09T00:34:18.840Z,100226.09
2024-05-09T00:37:01.593Z,100225.98
2024-05-09T00:39:35.918Z,100225.66
2024-05-09T00:42:51.690Z,100224.08
2024-05-09T00:45:31.498Z,100228.29
2024-05-09T00:47:59.310Z,100229.05
2024-05-09T00:54:08.327Z,100222.09
2024-05-09T00:56:55.806Z,100221.91
2024-05-09T00:59:29.254Z,100219.13
2024-05-09T01:01:58.006Z,100218.78
2024-05-09T01:04:28.080Z,100214.63
2024-05-09T01:06:55.140Z,100212.80
2024-05-09T01:10:17.368Z,100212.78
2024-05-09T01:12:34.904Z,100213.90
2024-05-09T01:15:08.838Z,100213.33
2024-05-09T01:17:38.647Z,100212.70
2024-05-09T01:20:08.147Z,100215.31
2024-05-09T01:22:38.566Z,100212.94
2024-05-09T01:25:09.555Z,100218.17
2024-05-09T01:27:39.239Z,100217.54
2024-05-09T01:30:20.982Z,100216.84
2024-05-09T01:32:51.661Z,100220.81
2024-05-09T01:35:28.847Z,100223.13
2024-05-09T01:38:33.393Z,100220.27
2024-05-09T01:41:25.959Z,100216.28
2024-05-09T01:44:21.098Z,100215.98
2024-05-09T01:54:21.916Z,100213.23
2024-05-09T01:57:20.436Z,100211.41
2024-05-09T01:59:49.904Z,100210.38
2024-05-09T02:02:31.634Z,100210.14
2024-05-09T02:04:59.968Z,100205.75
2024-05-09T02:07:28.006Z,100203.11
2024-05-09T02:10:16.663Z,100200.33
2024-05-09T02:13:07.327Z,100201.19
2024-05-09T02:15:34.392Z,100201.27
2024-05-09T02:21:48.398Z,100202.38
2024-05-09T02:21:54.235Z,100201.59
2024-05-09T02:28:42.468Z,100196.02
2024-05-09T02:31:51.490Z,100196.48
2024-05-09T02:34:33.616Z,100199.34
2024-05-09T02:37:23.549Z,100202.59
2024-05-09T02:39:53.080Z,100200.59
2024-05-09T02:42:38.510Z,100205.20
2024-05-09T02:46:36.767Z,100200.42
2024-05-09T02:49:34.909Z,100203.61
2024-05-09T02:52:05.031Z,100208.05
2024-05-09T02:54:34.931Z,100207.73
2024-05-09T02:57:04.988Z,100208.77
2024-05-09T02:59:37.077Z,100212.98
2024-05-09T03:02:36.647Z,100211.64
2024-05-09T03:08:45.936Z,100205.54
2024-05-09T03:15:46.362Z,100209.44
2024-05-09T03:18:24.115Z,100209.83
2024-05-09T03:21:42.160Z,100207.45
2024-05-09T03:24:15.451Z,100208.48
2024-05-09T03:33:48.014Z,100213.75
2024-05-09T03:34:38.017Z,100215.73
2024-05-09T03:37:05.150Z,100213.66
2024-05-09T03:40:14.704Z,100214.94
2024-05-09T03:42:55.912Z,100212.33
2024-05-09T03:45:34.659Z,100215.19
2024-05-09T03:48:12.597Z,100215.61
2024-05-09T03:50:43.283Z,100220.55
2024-05-09T04:00:37.950Z,100215.96
2024-05-09T04:35:30.802Z,100239.58
2024-05-09T04:37:47.034Z,100227.65
2024-05-09T04:38:27.948Z,100243.33
2024-05-09T04:41:42.372Z,100243.55
2024-05-09T04:44:19.869Z,100244.11
2024-05-09T04:47:04.192Z,100240.06
2024-05-09T04:52:01.063Z,100241.76
2024-05-09T04:53:27.259Z,100249.20
2024-05-09T04:56:11.245Z,100251.90
2024-05-09T04:59:09.439Z,100255.34
2024-05-09T05:05:47.005Z,100259.09
2024-05-09T05:08:21.029Z,100256.02
2024-05-09T05:10:58.636Z,100250.89
2024-05-09T05:42:10.956Z,100260.16
2024-05-09T05:45:06.788Z,100263.53
2024-05-09T05:52:02.550Z,100265.54
2024-05-09T06:05:57.289Z,100272.37
2024-05-09T06:09:16.824Z,100273.42
2024-05-09T06:12:06.578Z,100277.33
2024-05-09T06:15:24.082Z,100274.01
2024-05-09T06:18:21.799Z,100271.77
2024-05-09T06:24:31.771Z,100278.82
2024-05-09T06:31:07.317Z,100280.41
2024-05-09T06:38:32.495Z,100280.89
2024-05-09T06:49:18.363Z,100286.98
2024-05-09T06:52:51.098Z,100286.73
2024-05-09T06:55:55.865Z,100290.32
2024-05-09T06:58:53.987Z,100292.05
2024-05-09T07:02:03.081Z,100294.98
2024-05-09T07:05:02.252Z,100300.63
2024-05-09T07:07:45.801Z,100295.54
2024-05-09T07:15:00.491Z,100297.70
2024-05-09T07:20:57.554Z,100304.20
2024-05-09T07:24:13.731Z,100307.52
2024-05-09T07:27:08.714Z,100306.20
2024-05-09T07:30:33.599Z,100309.73
2024-05-09T07:33:12.891Z,100311.08
2024-05-09T07:36:15.880Z,100311.12
2024-05-09T07:39:39.318Z,100315.17
2024-05-09T07:42:30.172Z,100318.75
2024-05-09T07:50:55.822Z,100324.75
2024-05-09T07:53:35.113Z,100324.84
2024-05-09T07:56:41.246Z,100328.03
2024-05-09T08:00:01.131Z,100326.80
2024-05-09T08:02:34.662Z,100333.91
2024-05-09T08:05:17.831Z,100331.62
2024-05-09T08:08:36.090Z,100329.97
2024-05-09T08:11:50.339Z,100329.46
2024-05-09T08:26:10.517Z,100335.85
2024-05-09T08:39:50.496Z,100344.15
2024-05-09T08:52:56.030Z,100345.67
2024-05-09T09:05:39.919Z,100347.57
2024-05-09T09:08:48.661Z,100345.86
2024-05-09T09:16:23.685Z,100340.55
2024-05-09T09:23:09.887Z,100340.80
2024-05-09T09:27:11.799Z,100347.96
2024-05-09T09:29:36.302Z,100349.95
2024-05-09T09:32:55.086Z,100360.73
2024-05-09T09:35:57.082Z,100362.60
2024-05-09T09:38:57.717Z,100370.04
2024-05-09T09:42:50.240Z,100372.25
2024-05-09T09:46:07.236Z,100374.11
2024-05-09T09:49:08.898Z,100375.25
2024-05-09T09:52:22.411Z,100371.44
2024-05-09T09:56:09.195Z,100369.98
2024-05-09T09:59:09.339Z,100365.23
2024-05-09T10:02:28.156Z,100368.35
2024-05-09T10:05:34.522Z,100365.85
2024-05-09T10:12:19.977Z,100362.59
2024-05-09T10:18:47.948Z,100358.25
2024-05-09T10:21:52.876Z,100358.77
2024-05-09T10:31:24.176Z,100369.14
2024-05-09T10:44:50.826Z,100351.83
2024-05-09T10:50:49.598Z,100356.23
2024-05-09T10:54:57.511Z,100348.27
2024-05-09T10:57:11.898Z,100343.92
2024-05-09T11:00:44.057Z,100344.02
2024-05-09T11:03:32.690Z,100335.05
2024-05-09T11:10:56.800Z,100333.95
2024-05-09T11:13:43.037Z,100335.63
2024-05-09T11:17:13.215Z,100328.90
2024-05-09T11:20:38.002Z,100333.83
2024-05-09T11:23:24.447Z,100329.60
2024-05-09T11:26:29.979Z,100331.45
2024-05-09T11:29:30.187Z,100342.73
2024-05-09T11:32:28.564Z,100345.16
2024-05-09T11:35:19.132Z,100336.86
2024-05-09T11:37:52.500Z,100341.05
2024-05-09T11:41:01.905Z,100342.28
2024-05-09T11:50:32.811Z,100332.72
2024-05-09T11:51:27.122Z,100324.81
2024-05-09T11:54:41.941Z,100326.36
2024-05-09T11:57:34.862Z,100330.98
2024-05-09T12:04:28.962Z,100325.64
2024-05-09T12:07:34.059Z,100334.73
2024-05-09T12:10:48.380Z,100331.31
2024-05-09T12:14:17.807Z,100328.17
2024-05-09T12:17:28.585Z,100325.59
2024-05-09T12:20:36.212Z,100328.25
2024-05-09T12:23:35.322Z,100323.90
2024-05-09T12:31:29.661Z,100322.04
2024-05-09T12:34:26.899Z,100318.91
2024-05-09T12:37:51.646Z,100316.88
2024-05-09T12:40:35.691Z,100319.84
2024-05-09T12:43:53.227Z,100325.98
2024-05-09T12:46:56.408Z,100328.77
2024-05-09T12:56:09.295Z,100310.75
2024-05-09T12:58:47.528Z,100309.02
2024-05-09T13:04:47.381Z,100311.34
2024-05-09T13:07:16.585Z,100307.19
2024-05-09T13:27:23.063Z,100299.90
2024-05-09T13:30:56.123Z,100293.63
2024-05-09T13:34:43.673Z,100295.46
2024-05-09T13:37:45.144Z,100291.81
2024-05-09T13:40:36.440Z,100286.85
2024-05-09T13:51:09.894Z,100280.08
2024-05-09T13:58:10.570Z,100281.13
2024-05-09T14:00:53.729Z,100283.77
2024-05-09T14:03:37.689Z,100282.03
2024-05-09T14:06:22.698Z,100278.46
2024-05-09T14:09:10.638Z,100279.27
2024-05-09T14:13:35.317Z,100282.69
2024-05-09T14:16:01.097Z,100282.86
2024-05-09T14:19:13.459Z,100285.15
2024-05-09T14:22:20.227Z,100281.32
2024-05-09T14:25:10.705Z,100285.86
2024-05-09T14:27:59.020Z,100283.88
2024-05-09T14:30:38.940Z,100289.73
2024-05-09T14:33:32.488Z,100288.89
2024-05-09T14:36:09.153Z,100285.45
2024-05-09T14:39:59.479Z,100282.26
2024-05-09T14:42:42.876Z,100282.09
2024-05-09T14:45:56.414Z,100282.85
2024-05-09T14:48:33.590Z,100286.61
2024-05-09T14:59:30.232Z,100284.03
2024-05-09T15:06:24.733Z,100285.46
2024-05-09T15:10:35.692Z,100281.34
2024-05-09T15:32:46.239Z,100293.38
2024-05-09T15:35:57.220Z,100287.87
2024-05-09T15:41:42.928Z,100286.05
2024-05-09T15:45:42.234Z,100285.11
2024-05-09T15:52:49.474Z,100287.46
2024-05-09T15:56:50.052Z,100288.86
2024-05-09T16:03:21.485Z,100289.63
2024-05-09T16:15:24.816Z,100299.35
2024-05-09T16:17:59.556Z,100301.92
2024-05-09T17:22:42.838Z,100328.27
2024-05-09T17:25:09.763Z,100327.67
2024-05-09T17:27:44.862Z,100327.48
2024-05-09T17:30:31.833Z,100332.60
2024-05-09T17:33:45.445Z,100341.30
2024-05-09T18:46:02.056Z,100390.39
2024-05-09T19:06:57.503Z,100404.02
2024-05-09T19:14:20.068Z,100408.38
2024-05-09T19:36:03.204Z,100425.02
2024-05-09T19:51:24.967Z,100440.39
2024-05-09T20:02:59.122Z,100444.27
2024-05-09T20:10:08.066Z,100449.95
2024-05-09T20:12:56.183Z,100449.81
2024-05-09T20:23:06.703Z,100445.05
2024-05-09T20:26:38.051Z,100448.34
2024-05-09T20:36:58.835Z,100457.08
2024-05-09T20:40:15.344Z,100458.96
2024-05-09T20:43:30.946Z,100464.11
2024-05-09T20:46:22.646Z,100464.01
2024-05-09T20:49:39.922Z,100464.84
2024-05-09T20:52:14.401Z,100467.64
2024-05-09T20:54:47.129Z,100465.11
2024-05-09T20:57:39.711Z,100466.44
2024-05-09T21:07:47.515Z,100461.98
2024-05-09T21:13:57.711Z,100466.60
2024-05-09T21:19:26.129Z,100472.36
2024-05-09T21:20:37.752Z,100474.48
2024-05-09T21:23:21.038Z,100474.71
2024-05-09T21:33:32.651Z,100482.80
2024-05-09T21:36:14.289Z,100482.61
2024-05-09T21:38:49.632Z,100483.61
2024-05-09T21:43:18.656Z,100490.69
2024-05-09T21:45:42.995Z,100486.27
2024-05-09T21:48:56.394Z,100488.67
2024-05-09T21:51:40.571Z,100490.91
2024-05-09T21:54:24.600Z,100492.34
2024-05-09T21:58:05.928Z,100486.71
2024-05-09T22:01:32.450Z,100486.72
2024-05-09T22:04:23.970Z,100490.30
2024-05-09T22:07:21.588Z,100493.57
2024-05-09T22:10:19.966Z,100492.02
2024-05-09T22:13:14.891Z,100496.35
2024-05-09T22:15:47.109Z,100498.98
2024-05-09T22:18:14.354Z,100499.00
2024-05-09T22:20:50.167Z,100499.95
2024-05-09T22:26:57.779Z,100510.20
2024-05-09T22:30:11.781Z,100512.05
2024-05-09T22:32:42.434Z,100511.43
2024-05-09T22:35:26.360Z,100515.39
2024-05-09T22:37:55.607Z,100516.63
2024-05-09T22:40:37.748Z,100518.55
2024-05-09T22:43:12.501Z,100515.02
2024-05-09T22:45:40.216Z,100509.88
2024-05-09T22:48:30.123Z,100504.96
2024-05-09T22:50:57.413Z,100502.84
2024-05-09T22:53:32.251Z,100506.10
2024-05-09T22:56:29.752Z,100507.44
2024-05-09T22:58:58.155Z,100507.76
2024-05-09T23:01:29.261Z,100507.77
2024-05-09T23:03:58.779Z,100507.63
2024-05-09T23:06:26.076Z,100509.31
2024-05-09T23:09:16.998Z,100508.60
2024-05-09T23:11:45.321Z,100509.23
2024-05-09T23:14:18.475Z,100511.73
2024-05-09T23:16:52.888Z,100516.17
2024-05-09T23:19:23.824Z,100517.70
2024-05-09T23:21:55.615Z,100518.50
2024-05-09T23:24:27.449Z,100518.86
2024-05-09T23:26:54.506Z,100521.30
2024-05-09T23:29:30.150Z,100519.04
2024-05-09T23:31:58.801Z,100519.81
2024-05-09T23:34:28.128Z,100521.70
2024-05-09T23:37:00.094Z,100521.44
2024-05-09T23:39:42.236Z,100519.66
2024-05-09T23:42:10.952Z,100525.42
2024-05-09T23:44:39.835Z,100527.04
2024-05-09T23:47:12.174Z,100526.44
2024-05-09T23:49:39.283Z,100522.58
2024-05-09T23:52:06.448Z,100526.04
2024-05-09T23:54:33.481Z,100527.58
2024-05-09T23:57:00.288Z,100524.15
2024-05-09T23:59:27.023Z,100524.03
